Time;durP1;ratioP1;P1;durP2;ratioP2;P2;SDS_P1;SDS_P2;PMS_P1;PMS_P2;Temp;Humidity;BMP_temperature;BMP_pressure;BME280_temperature;BME280_humidity;BME280_pressure;Samples;Min_cycle;Max_cycle;Signal;HPM_P1;HPM_P2
2020/12/20 00:01:02;;;;;;;26.53;15.83;;;;;;;-0.40;93.45;100697.27;1786673;79;25712;-68
2020/12/20 00:03:28;;;;;;;25.27;15.33;;;;;;;-0.43;93.39;100689.55;1786603;79;25645;-67
2020/12/20 00:05:55;;;;;;;27.33;16.70;;;;;;;-0.44;93.38;100694.73;1786892;80;25320;-68
2020/12/20 00:08:23;;;;;;;27.40;17.23;;;;;;;-0.47;93.36;100685.73;1786741;80;25200;-67
2020/12/20 00:10:49;;;;;;;35.60;21.30;;;;;;;-0.49;93.41;100683.62;1786788;79;25273;-67
2020/12/20 00:13:17;;;;;;;31.37;19.93;;;;;;;-0.52;93.40;100681.95;1786795;80;25490;-68
2020/12/20 00:15:44;;;;;;;28.73;18.63;;;;;;;-0.53;93.52;100685.40;1789511;79;25245;-68
2020/12/20 00:18:11;;;;;;;28.30;18.57;;;;;;;-0.56;93.46;100683.70;1791542;79;25344;-68
2020/12/20 00:20:40;;;;;;;26.23;16.73;;;;;;;-0.54;93.56;100686.71;1791345;79;25269;-67
2020/12/20 00:23:06;;;;;;;29.17;18.87;;;;;;;-0.54;93.59;100682.83;1791551;80;25111;-68
2020/12/20 00:25:33;;;;;;;29.07;18.63;;;;;;;-0.55;93.69;100680.70;1791587;80;25280;-69
2020/12/20 00:28:00;;;;;;;29.10;19.00;;;;;;;-0.56;93.67;100681.56;1791475;79;25600;-68
2020/12/20 00:30:26;;;;;;;28.63;18.17;;;;;;;-0.56;93.72;100677.23;1791568;80;25138;-68
2020/12/20 00:32:53;;;;;;;25.00;15.70;;;;;;;-0.56;93.75;100679.82;1791434;79;25558;-68
2020/12/20 00:35:20;;;;;;;27.47;16.87;;;;;;;-0.54;93.83;100681.55;1791469;79;25126;-69
2020/12/20 00:37:47;;;;;;;25.80;16.70;;;;;;;-0.54;93.81;100678.96;1791410;80;25273;-68
2020/12/20 00:40:13;;;;;;;21.00;15.07;;;;;;;-0.53;93.85;100685.40;1791535;79;25260;-68
2020/12/20 00:42:40;;;;;;;26.57;18.40;;;;;;;-0.50;93.84;100688.36;1791505;80;25249;-68
2020/12/20 00:45:07;;;;;;;23.53;15.73;;;;;;;-0.50;93.87;100687.06;1791551;80;25226;-68
2020/12/20 00:47:34;;;;;;;22.00;13.97;;;;;;;-0.47;93.87;100695.66;1791588;79;25128;-68
2020/12/20 00:50:01;;;;;;;20.17;13.50;;;;;;;-0.45;93.82;100694.34;1791495;78;25684;-68
2020/12/20 00:52:27;;;;;;;21.83;14.43;;;;;;;-0.45;93.74;100686.59;1791495;80;25275;-68
2020/12/20 00:54:56;;;;;;;19.60;13.57;;;;;;;-0.45;93.74;100690.47;1791529;80;25057;-69
2020/12/20 00:57:23;;;;;;;20.97;13.20;;;;;;;-0.45;93.81;100683.55;1791520;80;25166;-70
2020/12/20 00:59:50;;;;;;;18.47;12.60;;;;;;;-0.45;93.83;100684.84;1791389;79;25170;-69
2020/12/20 01:02:17;;;;;;;21.17;13.33;;;;;;;-0.44;93.77;100681.37;1791453;79;25174;-68
2020/12/20 01:04:43;;;;;;;18.20;12.40;;;;;;;-0.44;93.80;100682.66;1791533;80;25794;-69
2020/12/20 01:07:11;;;;;;;19.67;13.60;;;;;;;-0.45;93.88;100684.84;1791472;79;25146;-67
2020/12/20 01:09:41;;;;;;;19.33;11.90;;;;;;;-0.44;93.80;100686.53;1790687;79;25174;-67
2020/12/20 01:12:08;;;;;;;17.67;11.30;;;;;;;-0.44;93.82;100686.53;1791636;79;25234;-67
2020/12/20 01:14:47;;;;;;;15.13;11.23;;;;;;;-0.40;93.81;100684.34;1818399;78;26953;-66
2020/12/20 01:17:15;;;;;;;18.07;12.17;;;;;;;-0.45;93.83;100686.59;1789537;79;25692;-66
2020/12/20 01:19:43;;;;;;;17.27;11.77;;;;;;;-0.47;93.79;100680.15;1789351;79;25854;-67
2020/12/20 01:22:10;;;;;;;16.27;11.27;;;;;;;-0.49;93.83;100682.33;1789358;79;25317;-67
2020/12/20 01:24:37;;;;;;;17.70;11.50;;;;;;;-0.50;93.84;100675.44;1789459;80;25214;-67
2020/12/20 01:27:06;;;;;;;16.80;10.67;;;;;;;-0.52;93.83;100675.48;1788762;79;25301;-67
2020/12/20 01:29:35;;;;;;;16.10;11.27;;;;;;;-0.52;93.87;100675.48;1789408;80;25701;-67
2020/12/20 01:32:02;;;;;;;16.43;11.20;;;;;;;-0.53;93.84;100675.06;1789467;79;25280;-67
2020/12/20 01:34:28;;;;;;;17.13;11.07;;;;;;;-0.52;93.91;100674.61;1789310;79;25699;-67
2020/12/20 01:36:56;;;;;;;17.63;10.77;;;;;;;-0.52;93.94;100678.08;1789339;79;25280;-67
2020/12/20 01:39:23;;;;;;;20.90;12.83;;;;;;;-0.51;94.02;100673.75;1789418;79;25368;-67
2020/12/20 01:41:52;;;;;;;18.00;12.07;;;;;;;-0.52;93.98;100669.03;1789370;80;25714;-68
2020/12/20 01:44:21;;;;;;;19.03;11.73;;;;;;;-0.53;93.92;100662.59;1789036;80;25296;-67
2020/12/20 01:46:48;;;;;;;16.27;11.87;;;;;;;-0.52;94.00;100666.86;1789406;79;25286;-67
2020/12/20 01:49:16;;;;;;;17.80;11.90;;;;;;;-0.54;94.00;100668.17;1789344;79;25396;-67
2020/12/20 01:51:43;;;;;;;18.17;11.90;;;;;;;-0.55;94.03;100669.07;1749687;80;25126;-68
2020/12/20 01:54:12;;;;;;;20.43;12.03;;;;;;;-0.54;94.06;100665.59;1784089;79;25296;-69
2020/12/20 01:56:40;;;;;;;16.63;11.47;;;;;;;-0.54;94.03;100663.45;1783442;80;25312;-68
2020/12/20 01:59:09;;;;;;;18.90;11.90;;;;;;;-0.53;94.03;100663.44;1782713;80;25171;-67
2020/12/20 02:01:40;;;;;;;17.27;11.80;;;;;;;-0.51;94.03;100671.16;1783856;79;25297;-67
2020/12/20 02:04:20;;;;;;;18.00;11.83;;;;;;;-0.44;94.05;100668.44;1849782;76;27439;-66
2020/12/20 02:06:47;;;;;;;17.37;11.50;;;;;;;-0.47;93.97;100672.39;1788492;78;25694;-66
2020/12/20 02:09:15;;;;;;;20.07;12.80;;;;;;;-0.48;93.91;100664.21;1819364;78;25338;-66
2020/12/20 02:11:42;;;;;;;17.03;11.33;;;;;;;-0.48;93.91;100665.51;1819741;78;25306;-66
2020/12/20 02:14:11;;;;;;;14.90;11.27;;;;;;;-0.47;93.87;100670.23;1819150;77;25646;-68
2020/12/20 02:16:47;;;;;;;18.07;11.40;;;;;;;-0.43;93.83;100663.70;1849762;76;26796;-67
2020/12/20 02:19:14;;;;;;;16.33;10.70;;;;;;;-0.49;93.83;100657.33;1819838;77;25238;-67
2020/12/20 02:21:41;;;;;;;16.80;11.03;;;;;;;-0.48;94.00;100654.33;1788215;78;25820;-66
2020/12/20 02:24:10;;;;;;;16.30;11.33;;;;;;;-0.47;93.93;100657.30;1819211;77;25290;-69
2020/12/20 02:26:44;;;;;;;17.37;11.00;;;;;;;-0.48;93.99;100656.46;1818814;77;25246;-67
2020/12/20 02:29:12;;;;;;;16.37;11.13;;;;;;;-0.47;93.96;100659.47;1819902;78;25258;-68
2020/12/20 02:31:38;;;;;;;14.47;10.10;;;;;;;-0.47;93.99;100656.89;1819697;78;25604;-67
2020/12/20 02:34:09;;;;;;;16.23;11.17;;;;;;;-0.46;94.04;100654.70;1819603;77;25247;-67
2020/12/20 02:36:37;;;;;;;16.93;11.43;;;;;;;-0.47;93.99;100655.59;1819639;77;25065;-67
2020/12/20 02:39:07;;;;;;;15.23;10.80;;;;;;;-0.48;93.96;100655.17;1819960;77;25180;-67
2020/12/20 02:41:42;;;;;;;16.47;11.03;;;;;;;-0.47;94.00;100654.30;1818660;77;25243;-67
2020/12/20 02:44:09;;;;;;;15.43;10.57;;;;;;;-0.47;93.95;100658.59;1788302;78;25453;-68
2020/12/20 02:46:42;;;;;;;15.53;10.70;;;;;;;-0.48;94.03;100659.05;1819644;77;25550;-67
2020/12/20 02:49:11;;;;;;;14.77;10.10;;;;;;;-0.50;93.95;100657.34;1789233;77;25256;-67
2020/12/20 02:51:39;;;;;;;15.40;10.70;;;;;;;-0.53;94.00;100659.55;1793808;78;25064;-67
2020/12/20 02:54:07;;;;;;;15.30;10.50;;;;;;;-0.54;94.01;100660.42;1787606;79;25190;-68
2020/12/20 02:56:45;;;;;;;15.17;10.93;;;;;;;-0.50;94.04;100654.34;1849734;76;26795;-67
2020/12/20 02:59:13;;;;;;;16.07;11.17;;;;;;;-0.55;94.05;100658.73;1819339;77;25295;-68
2020/12/20 03:01:40;;;;;;;15.87;10.77;;;;;;;-0.55;94.08;100653.56;1819806;77;25713;-69
2020/12/20 03:04:09;;;;;;;15.87;10.67;;;;;;;-0.54;94.13;100658.28;1819188;78;25673;-67
2020/12/20 03:06:36;;;;;;;15.27;10.07;;;;;;;-0.55;94.10;100660.03;1819776;78;25259;-67
2020/12/20 03:09:05;;;;;;;13.23;9.70;;;;;;;-0.53;94.16;100659.55;1819799;78;25203;-68
2020/12/20 03:11:33;;;;;;;15.13;10.17;;;;;;;-0.54;94.14;100652.67;1819778;78;25180;-67
2020/12/20 03:13:59;;;;;;;15.07;10.23;;;;;;;-0.55;94.18;100647.11;1819771;78;25619;-67
2020/12/20 03:16:27;;;;;;;13.87;10.77;;;;;;;-0.55;94.18;100643.23;1819889;78;25262;-67
2020/12/20 03:18:56;;;;;;;15.93;10.97;;;;;;;-0.56;94.24;100643.64;1819899;77;25247;-68
2020/12/20 03:21:23;;;;;;;14.40;11.07;;;;;;;-0.52;94.24;100638.44;1819843;77;25263;-68
2020/12/20 03:24:00;;;;;;;13.83;10.67;;;;;;;-0.49;94.15;100638.39;1849872;76;26831;-69
2020/12/20 03:26:41;;;;;;;16.00;10.50;;;;;;;-0.54;94.19;100639.75;1816680;77;25188;-68
2020/12/20 03:29:18;;;;;;;15.20;10.60;;;;;;;-0.52;94.17;100639.31;1849826;76;27664;-67
2020/12/20 03:31:47;;;;;;;15.00;10.57;;;;;;;-0.58;94.16;100634.23;1819850;78;25240;-68
2020/12/20 03:34:36;;;;;;;13.93;10.33;;;;;;;-0.54;94.12;100630.70;1849881;76;26887;-66
2020/12/20 03:37:19;;;;;;;14.33;9.53;;;;;;;-0.59;94.10;100636.38;1817842;77;25274;-67
2020/12/20 03:39:56;;;;;;;12.50;9.83;;;;;;;-0.53;94.23;100632.42;1818495;78;26891;-66
2020/12/20 03:42:24;;;;;;;13.87;10.00;;;;;;;-0.59;94.10;100632.51;1789645;79;25209;-67
2020/12/20 03:44:51;;;;;;;13.70;9.83;;;;;;;-0.61;94.00;100623.48;1789533;79;25343;-67
2020/12/20 03:47:19;;;;;;;14.73;10.10;;;;;;;-0.63;94.06;100627.83;1789438;79;25403;-67
2020/12/20 03:49:48;;;;;;;14.47;10.90;;;;;;;-0.62;94.08;100627.37;1787410;79;25870;-67
2020/12/20 03:52:15;;;;;;;15.17;10.47;;;;;;;-0.61;94.10;100627.81;1757847;80;25225;-67
2020/12/20 03:54:47;;;;;;;14.37;9.70;;;;;;;-0.63;94.11;100635.58;1782481;80;25193;-68
2020/12/20 03:57:14;;;;;;;13.53;10.17;;;;;;;-0.65;94.12;100632.17;1784138;80;25696;-67
2020/12/20 03:59:41;;;;;;;14.43;10.10;;;;;;;-0.68;94.11;100633.51;1757874;80;25289;-67
2020/12/20 04:02:10;;;;;;;13.13;9.83;;;;;;;-0.67;94.14;100636.94;1745461;80;25711;-67
2020/12/20 04:04:37;;;;;;;13.03;10.17;;;;;;;-0.70;94.07;100639.14;1739388;82;25248;-67
2020/12/20 04:07:04;;;;;;;13.23;9.73;;;;;;;-0.73;94.05;100644.35;1739153;82;25357;-67
2020/12/20 04:09:32;;;;;;;14.60;9.73;;;;;;;-0.72;94.06;100638.73;1739105;82;25645;-68
2020/12/20 04:12:02;;;;;;;12.43;9.83;;;;;;;-0.72;94.06;100646.48;1737843;82;25171;-68
2020/12/20 04:14:30;;;;;;;13.30;10.00;;;;;;;-0.73;94.00;100639.19;1739038;82;25800;-68
2020/12/20 04:16:57;;;;;;;12.23;9.57;;;;;;;-0.76;93.96;100642.66;1739136;82;25317;-68
2020/12/20 04:19:23;;;;;;;13.77;10.10;;;;;;;-0.77;94.00;100638.83;1739081;82;25301;-67
2020/12/20 04:21:52;;;;;;;14.10;10.13;;;;;;;-0.80;94.00;100644.03;1738400;82;25434;-68
2020/12/20 04:24:37;;;;;;;12.90;9.20;;;;;;;-0.79;93.94;100637.97;1849868;76;26815;-68
2020/12/20 04:27:05;;;;;;;14.93;10.13;;;;;;;-0.85;94.03;100648.42;1819693;78;25259;-66
2020/12/20 04:29:33;;;;;;;13.77;10.50;;;;;;;-0.88;94.02;100643.29;1819106;78;25606;-67
2020/12/20 04:32:03;;;;;;;13.03;9.53;;;;;;;-0.89;94.04;100641.56;1819819;77;25298;-69
2020/12/20 04:34:30;;;;;;;15.70;10.30;;;;;;;-0.91;94.03;100641.59;1819870;77;25390;-68
2020/12/20 04:36:57;;;;;;;13.33;9.43;;;;;;;-0.94;94.04;100636.05;1819829;78;25255;-69
2020/12/20 04:39:28;;;;;;;14.57;9.83;;;;;;;-0.94;94.07;100639.92;1816918;78;25239;-67
2020/12/20 04:41:55;;;;;;;13.63;9.47;;;;;;;-0.95;94.06;100634.77;1819812;77;25254;-69
2020/12/20 04:44:23;;;;;;;13.90;9.97;;;;;;;-0.96;94.10;100640.35;1819677;77;25726;-67
2020/12/20 04:46:52;;;;;;;14.50;8.53;;;;;;;-0.96;94.11;100636.92;1819127;78;25330;-67
2020/12/20 04:49:30;;;;;;;15.53;10.10;;;;;;;-0.89;94.20;100639.83;1849737;76;26920;-67
2020/12/20 04:51:59;;;;;;;12.37;8.40;;;;;;;-0.93;94.17;100640.77;1788676;78;25285;-67
2020/12/20 04:54:27;;;;;;;12.40;9.80;;;;;;;-0.92;94.17;100642.90;1787645;79;25261;-66
2020/12/20 04:56:55;;;;;;;12.47;9.27;;;;;;;-0.93;94.13;100639.47;1787503;79;25846;-70
2020/12/20 04:59:25;;;;;;;13.80;9.90;;;;;;;-0.93;94.19;100635.59;1786891;79;25720;-67
2020/12/20 05:01:54;;;;;;;13.07;9.03;;;;;;;-0.94;94.15;100637.75;1786912;79;25577;-67
2020/12/20 05:04:21;;;;;;;15.07;10.60;;;;;;;-0.93;94.21;100640.77;1787351;79;25198;-67
2020/12/20 05:06:47;;;;;;;14.83;10.87;;;;;;;-0.94;94.22;100648.95;1787566;79;25197;-67
2020/12/20 05:09:19;;;;;;;16.03;10.47;;;;;;;-0.93;94.22;100652.38;1784847;80;25217;-66
2020/12/20 05:11:50;;;;;;;17.07;10.90;;;;;;;-0.91;94.18;100654.95;1786623;80;25254;-66
2020/12/20 05:14:19;;;;;;;14.40;10.70;;;;;;;-0.91;94.20;100657.53;1786807;80;25193;-66
2020/12/20 05:16:53;;;;;;;17.10;11.13;;;;;;;-0.91;94.20;100654.95;1734563;79;25254;-67
2020/12/20 05:19:31;;;;;;;13.43;9.47;;;;;;;-0.91;94.16;100648.49;1787520;79;25648;-67
2020/12/20 05:22:20;;;;;;;13.43;9.67;;;;;;;-0.90;94.18;100654.93;1787444;79;25652;-66
2020/12/20 05:24:50;;;;;;;13.43;9.70;;;;;;;-0.92;94.14;100647.64;1786872;80;25244;-67
2020/12/20 05:27:28;;;;;;;12.80;9.37;;;;;;;-0.91;94.15;100649.78;1787504;80;25256;-70
2020/12/20 05:29:58;;;;;;;12.60;8.93;;;;;;;-0.92;94.13;100647.64;1787401;80;25673;-67
2020/12/20 05:32:28;;;;;;;12.83;9.40;;;;;;;-0.92;94.15;100656.69;1784887;79;25099;-67
2020/12/20 05:35:06;;;;;;;12.83;9.23;;;;;;;-0.92;94.10;100662.27;1786102;79;25277;-67
2020/12/20 05:37:34;;;;;;;12.33;9.50;;;;;;;-0.91;94.14;100657.53;1787509;80;25222;-67
2020/12/20 05:40:06;;;;;;;13.50;9.93;;;;;;;-0.92;94.13;100658.39;1784148;79;25751;-69
2020/12/20 05:42:56;;;;;;;14.03;9.90;;;;;;;-0.86;94.20;100657.87;1818343;78;26859;-69
2020/12/20 05:45:28;;;;;;;13.57;9.10;;;;;;;-0.91;94.16;100663.98;1793707;80;25261;-69
2020/12/20 05:47:57;;;;;;;12.27;9.10;;;;;;;-0.93;94.20;100662.72;1787635;79;25728;-69
2020/12/20 05:50:29;;;;;;;13.30;9.10;;;;;;;-0.91;94.14;100660.95;1774145;80;25303;-69
2020/12/20 05:53:04;;;;;;;11.07;8.20;;;;;;;-0.89;94.17;100663.52;1709212;82;25341;-69
2020/12/20 05:55:39;;;;;;;13.63;8.97;;;;;;;-0.88;94.17;100662.21;1739135;82;25872;-70
2020/12/20 05:58:11;;;;;;;11.97;9.43;;;;;;;-0.88;94.18;100662.21;1739171;82;25821;-69
2020/12/20 06:00:39;;;;;;;12.40;8.90;;;;;;;-0.88;94.22;100671.70;1739136;82;25384;-67
2020/12/20 06:03:06;;;;;;;12.93;9.27;;;;;;;-0.86;94.27;100672.52;1739086;82;25357;-67
2020/12/20 06:05:39;;;;;;;11.43;8.93;;;;;;;-0.85;94.25;100678.97;1739200;82;25230;-68
2020/12/20 06:08:15;;;;;;;11.97;8.33;;;;;;;-0.82;94.30;100682.80;1738403;82;25736;-69
2020/12/20 06:10:50;;;;;;;12.50;9.37;;;;;;;-0.80;94.28;100674.59;1738127;82;25274;-69
2020/12/20 06:13:22;;;;;;;16.00;9.60;;;;;;;-0.80;94.25;100674.59;1738945;82;25274;-67
2020/12/20 06:15:55;;;;;;;17.13;10.60;;;;;;;-0.78;94.32;100679.28;1739056;82;25654;-70
2020/12/20 06:18:28;;;;;;;19.00;11.40;;;;;;;-0.77;94.26;100686.62;1739070;82;25230;-69
2020/12/20 06:21:02;;;;;;;16.70;10.70;;;;;;;-0.78;94.26;100692.20;1738918;82;26043;-69
2020/12/20 06:23:33;;;;;;;14.77;10.13;;;;;;;-0.77;94.26;100686.62;1739066;82;25317;-69
2020/12/20 06:26:02;;;;;;;13.57;8.80;;;;;;;-0.79;94.21;100687.93;1739022;82;25262;-69
2020/12/20 06:28:31;;;;;;;13.50;9.63;;;;;;;-0.80;94.24;100690.09;1738973;82;25308;-69
2020/12/20 06:30:58;;;;;;;15.33;9.73;;;;;;;-0.82;94.27;100687.97;1738984;82;25282;-69
2020/12/20 06:33:39;;;;;;;15.57;9.57;;;;;;;-0.86;94.28;100691.45;1739054;82;25781;-69
2020/12/20 06:36:14;;;;;;;14.00;10.17;;;;;;;-0.89;94.34;100694.07;1739090;82;25756;-70
2020/12/20 06:38:41;;;;;;;14.63;10.50;;;;;;;-0.93;94.34;100698.88;1739091;82;25353;-69
2020/12/20 06:41:08;;;;;;;18.03;11.40;;;;;;;-0.94;94.29;100705.78;1708427;82;25792;-70
2020/12/20 06:43:37;;;;;;;14.40;9.87;;;;;;;-0.95;94.30;100707.08;1739128;82;25355;-69
2020/12/20 06:46:04;;;;;;;15.93;11.00;;;;;;;-0.93;94.34;100700.16;1739091;82;25384;-69
2020/12/20 06:48:38;;;;;;;16.10;11.67;;;;;;;-0.97;94.23;100695.48;1739192;82;25646;-69
2020/12/20 06:51:06;;;;;;;18.60;10.63;;;;;;;-1.00;94.29;100698.55;1738699;82;25234;-69
2020/12/20 06:53:50;;;;;;;15.70;11.40;;;;;;;-1.02;94.32;100697.69;1738545;82;25729;-69
2020/12/20 06:56:21;;;;;;;17.40;10.87;;;;;;;-1.04;94.30;100696.44;1738534;82;25752;-68
2020/12/20 06:58:52;;;;;;;16.80;11.37;;;;;;;-1.06;94.38;100683.96;1738623;82;25309;-68
2020/12/20 07:01:38;;;;;;;16.87;11.20;;;;;;;-1.08;94.42;100693.47;1738501;82;25238;-68
2020/12/20 07:04:14;;;;;;;17.13;10.80;;;;;;;-1.07;94.47;100693.89;1738523;82;25768;-69
2020/12/20 07:06:41;;;;;;;16.97;10.40;;;;;;;-1.08;94.45;100696.05;1738492;82;25396;-69
2020/12/20 07:09:09;;;;;;;16.73;11.53;;;;;;;-1.07;94.50;100693.02;1738397;82;25145;-68
2020/12/20 07:11:47;;;;;;;19.43;12.37;;;;;;;-1.06;94.46;100700.75;1738404;82;25507;-68
2020/12/20 07:14:22;;;;;;;18.20;11.57;;;;;;;-1.05;94.43;100704.20;1738450;82;25293;-68
2020/12/20 07:16:50;;;;;;;16.00;10.70;;;;;;;-1.04;94.55;100705.89;1709104;82;25289;-68
2020/12/20 07:19:25;;;;;;;14.13;9.57;;;;;;;-1.03;94.52;100707.62;1738430;82;25736;-68
2020/12/20 07:22:01;;;;;;;14.37;10.20;;;;;;;-1.01;94.59;100711.03;1738392;82;25246;-69
2020/12/20 07:24:32;;;;;;;15.10;10.07;;;;;;;-1.02;94.53;100705.02;1738404;82;25195;-68
2020/12/20 07:27:03;;;;;;;15.23;11.00;;;;;;;-1.01;94.57;100703.28;1738571;82;25728;-68
2020/12/20 07:29:33;;;;;;;16.27;11.37;;;;;;;-1.03;94.46;100704.59;1738552;82;25325;-69
2020/12/20 07:32:01;;;;;;;16.93;12.27;;;;;;;-1.03;94.51;100705.03;1737759;82;25294;-69
2020/12/20 07:34:28;;;;;;;14.37;10.60;;;;;;;-1.07;94.46;100716.25;1738541;82;25309;-68
2020/12/20 07:36:56;;;;;;;15.27;11.00;;;;;;;-1.08;94.49;100712.83;1738439;82;25313;-69
2020/12/20 07:39:24;;;;;;;16.90;10.50;;;;;;;-1.09;94.45;100708.53;1738486;82;25305;-68
2020/12/20 07:41:54;;;;;;;15.80;11.43;;;;;;;-1.07;94.48;100708.09;1738224;82;25091;-69
2020/12/20 07:44:21;;;;;;;15.00;10.70;;;;;;;-1.08;94.40;100706.82;1738536;82;25095;-69
2020/12/20 07:46:48;;;;;;;17.53;12.37;;;;;;;-1.03;94.47;100702.45;1738480;82;25155;-68
2020/12/20 07:49:15;;;;;;;17.03;11.57;;;;;;;-1.01;94.47;100704.56;1738392;82;25653;-68
2020/12/20 07:51:43;;;;;;;17.13;11.30;;;;;;;-0.98;94.49;100703.25;1738192;82;25534;-68
2020/12/20 07:54:12;;;;;;;17.97;12.10;;;;;;;-0.94;94.56;100703.61;1738395;82;25649;-68
2020/12/20 07:56:41;;;;;;;17.53;11.43;;;;;;;-0.91;94.51;100707.89;1738391;82;25349;-68
2020/12/20 07:59:18;;;;;;;15.63;10.53;;;;;;;-0.85;94.60;100707.83;1738511;82;25175;-69
2020/12/20 08:01:47;;;;;;;13.63;10.20;;;;;;;-0.81;94.63;100709.03;1738447;82;25298;-69
2020/12/20 08:04:18;;;;;;;13.80;9.80;;;;;;;-0.78;94.61;100714.16;1738335;82;25077;-69
2020/12/20 08:06:49;;;;;;;15.37;10.47;;;;;;;-0.73;94.71;100713.26;1708015;82;25645;-68
2020/12/20 08:09:20;;;;;;;16.23;11.07;;;;;;;-0.70;94.70;100719.65;1738478;82;25309;-69
2020/12/20 08:11:48;;;;;;;15.93;11.17;;;;;;;-0.66;94.69;100725.21;1737812;82;25312;-68
2020/12/20 08:14:16;;;;;;;15.93;10.67;;;;;;;-0.60;94.71;100733.73;1738387;82;25656;-68
2020/12/20 08:16:51;;;;;;;15.97;11.47;;;;;;;-0.53;94.73;100732.36;1738476;82;25641;-68
2020/12/20 08:19:28;;;;;;;20.70;13.13;;;;;;;-0.49;94.75;100725.81;1738414;82;25100;-68
2020/12/20 08:22:13;;;;;;;18.70;13.90;;;;;;;-0.44;94.74;100723.17;1738224;82;25783;-68
2020/12/20 08:24:42;;;;;;;21.53;15.03;;;;;;;-0.35;94.72;100724.34;1738429;82;25784;-67
2020/12/20 08:27:26;;;;;;;20.50;14.60;;;;;;;-0.26;94.73;100719.47;1738408;82;25281;-68
2020/12/20 08:29:55;;;;;;;26.43;17.77;;;;;;;-0.16;94.71;100717.14;1738461;82;25290;-68
2020/12/20 08:32:25;;;;;;;18.13;12.73;;;;;;;-0.09;94.63;100723.07;1738299;82;25851;-69
2020/12/20 08:34:51;;;;;;;14.03;10.30;;;;;;;-0.03;94.66;100719.95;1738400;82;25317;-68
2020/12/20 08:37:21;;;;;;;15.07;10.70;;;;;;;0.07;94.69;100727.54;1738466;82;25263;-69
2020/12/20 08:39:48;;;;;;;15.07;10.80;;;;;;;0.15;94.71;100725.27;1738394;82;25297;-68
2020/12/20 08:42:17;;;;;;;14.90;10.83;;;;;;;0.25;94.74;100729.84;1738210;82;25638;-68
2020/12/20 08:44:46;;;;;;;14.17;10.27;;;;;;;0.36;94.71;100735.66;1738478;82;25637;-68
2020/12/20 08:47:18;;;;;;;14.77;9.87;;;;;;;0.49;94.75;100736.75;1738394;82;25151;-68
2020/12/20 08:49:57;;;;;;;12.13;9.23;;;;;;;0.59;94.75;100742.17;1738254;82;25364;-68
2020/12/20 08:52:28;;;;;;;21.00;13.17;;;;;;;0.69;94.60;100728.62;1738476;82;25310;-69
2020/12/20 08:54:55;;;;;;;17.03;12.23;;;;;;;0.80;94.48;100727.94;1737911;82;25281;-69
2020/12/20 08:57:25;;;;;;;28.00;18.50;;;;;;;0.89;94.46;100733.41;1709351;82;25534;-69
2020/12/20 08:59:52;;;;;;;20.80;14.90;;;;;;;0.96;94.43;100736.28;1738371;82;25703;-68
2020/12/20 09:02:24;;;;;;;14.17;10.93;;;;;;;1.05;94.36;100737.83;1738265;82;25575;-69
2020/12/20 09:05:00;;;;;;;14.27;10.37;;;;;;;1.13;94.21;100733.79;1738380;82;25261;-69
2020/12/20 09:07:40;;;;;;;23.20;16.00;;;;;;;1.19;94.10;100736.23;1738390;82;25784;-69
2020/12/20 09:10:13;;;;;;;17.37;12.83;;;;;;;1.25;94.11;100733.52;1738395;82;25755;-69
2020/12/20 09:12:58;;;;;;;14.47;10.50;;;;;;;1.29;94.01;100731.26;1738348;82;25413;-68
2020/12/20 09:15:33;;;;;;;14.70;10.43;;;;;;;1.35;93.91;100730.30;1738440;82;25361;-70
2020/12/20 09:18:03;;;;;;;12.97;9.23;;;;;;;1.42;93.94;100733.16;1738496;82;25314;-70
2020/12/20 09:20:34;;;;;;;15.87;11.20;;;;;;;1.51;93.90;100733.38;1736389;82;25298;-68
2020/12/20 09:23:02;;;;;;;13.47;8.50;;;;;;;1.57;93.98;100733.25;1687447;82;25334;-68
2020/12/20 09:25:39;;;;;;;12.67;9.13;;;;;;;1.66;93.90;100736.50;1738526;82;25365;-68
2020/12/20 09:28:21;;;;;;;11.50;9.27;;;;;;;1.73;93.70;100738.50;1738429;82;25764;-68
2020/12/20 09:30:56;;;;;;;13.97;10.03;;;;;;;1.78;93.54;100739.25;1738605;82;25329;-69
2020/12/20 09:33:30;;;;;;;18.50;13.27;;;;;;;1.82;93.54;100738.27;1738532;82;25227;-68
2020/12/20 09:36:02;;;;;;;21.27;13.57;;;;;;;1.89;93.41;100734.24;1738394;82;25333;-69
2020/12/20 09:38:36;;;;;;;17.20;12.33;;;;;;;1.94;93.49;100733.69;1738611;82;25243;-68
2020/12/20 09:41:09;;;;;;;41.33;28.30;;;;;;;1.99;93.29;100733.13;1708306;82;25159;-68
2020/12/20 09:43:37;;;;;;;56.97;44.07;;;;;;;2.04;93.34;100733.86;1740841;82;25325;-69
2020/12/20 09:46:04;;;;;;;27.93;20.43;;;;;;;2.09;93.31;100734.60;1714317;82;25289;-68
2020/12/20 09:48:34;;;;;;;24.10;16.73;;;;;;;2.15;93.38;100730.56;1715295;82;25265;-69
2020/12/20 09:51:01;;;;;;;24.93;17.27;;;;;;;2.23;93.16;100737.72;1690512;82;25376;-68
2020/12/20 09:53:48;;;;;;;19.90;14.13;;;;;;;2.30;93.16;100737.58;1741566;82;25293;-68
2020/12/20 09:56:19;;;;;;;20.37;14.20;;;;;;;2.38;93.18;100735.60;1741635;82;25116;-69
2020/12/20 09:58:51;;;;;;;19.13;13.70;;;;;;;2.46;92.80;100733.66;1741684;82;25670;-70
2020/12/20 10:01:33;;;;;;;15.97;11.30;;;;;;;2.59;92.74;100726.41;1892453;75;26387;-70
2020/12/20 10:04:12;;;;;;;;;;;;;;;;;;;;;
2020/12/20 10:06:45;;;;;;;16.87;12.00;;;;;;;2.64;92.48;100726.29;1831959;76;25365;-71
2020/12/20 10:09:17;;;;;;;12.90;9.77;;;;;;;2.75;92.51;100729.45;1832137;76;25273;-68
2020/12/20 10:11:45;;;;;;;13.70;10.73;;;;;;;2.79;92.35;100728.45;1804981;78;25314;-69
2020/12/20 10:14:19;;;;;;;14.30;10.93;;;;;;;2.87;92.42;100725.66;1832094;78;25326;-68
2020/12/20 10:16:53;;;;;;;13.47;10.00;;;;;;;2.97;92.52;100728.40;1832132;76;25707;-69
2020/12/20 10:19:30;;;;;;;13.43;9.57;;;;;;;3.14;91.53;100716.21;1811680;78;27449;-68
2020/12/20 10:22:08;;;;;;;16.30;10.93;;;;;;;3.10;91.90;100719.35;1790004;79;25336;-69
2020/12/20 10:24:40;;;;;;;15.30;11.30;;;;;;;3.18;90.90;100714.37;1797653;79;25194;-71
2020/12/20 10:27:31;;;;;;;18.63;12.37;;;;;;;3.20;91.24;100716.04;1797560;79;25315;-70
2020/12/20 10:30:05;;;;;;;11.60;8.37;;;;;;;3.27;91.54;100712.81;1765816;79;25628;-70
2020/12/20 10:32:36;;;;;;;12.40;9.03;;;;;;;3.35;91.09;100708.20;1795084;79;25289;-69
2020/12/20 10:35:17;;;;;;;11.90;8.87;;;;;;;3.43;90.16;100710.58;1764384;79;25422;-74
2020/12/20 10:38:00;;;;;;;15.07;10.13;;;;;;;3.49;90.55;100715.60;1797565;79;25149;-70
2020/12/20 10:40:34;;;;;;;13.43;9.83;;;;;;;3.57;89.54;100712.31;1797382;79;25600;-69
2020/12/20 10:43:05;;;;;;;12.70;7.80;;;;;;;3.61;89.25;100712.61;1797255;79;25348;-69
2020/12/20 10:45:43;;;;;;;11.53;8.07;;;;;;;3.68;88.72;100719.77;1790565;79;25324;-68
2020/12/20 10:48:08;;;;;;;11.73;8.50;;;;;;;3.70;88.98;100708.43;1796739;78;25387;-69
2020/12/20 10:50:39;;;;;;;9.77;7.90;;;;;;;3.78;88.12;100708.63;1796814;79;25329;-67
2020/12/20 10:53:15;;;;;;;13.03;9.57;;;;;;;3.85;87.81;100701.86;1795529;80;25267;-68
2020/12/20 10:55:45;;;;;;;10.57;8.30;;;;;;;3.87;87.89;100707.02;1795572;79;25277;-69
2020/12/20 10:58:16;;;;;;;12.20;8.10;;;;;;;3.90;87.90;100706.48;1765120;80;25309;-70
2020/12/20 11:00:50;;;;;;;9.20;7.20;;;;;;;4.00;87.34;100704.41;1765560;79;25746;-67
2020/12/20 11:03:23;;;;;;;8.23;6.33;;;;;;;4.07;86.81;100703.75;1765234;80;25273;-68
2020/12/20 11:05:55;;;;;;;10.70;7.87;;;;;;;4.11;86.47;100702.77;1764124;79;25652;-69
2020/12/20 11:08:29;;;;;;;8.67;7.23;;;;;;;4.09;86.87;100707.18;1795529;79;25197;-70
2020/12/20 11:11:00;;;;;;;10.87;8.60;;;;;;;4.11;86.79;100701.92;1795409;79;25581;-69
2020/12/20 11:13:27;;;;;;;11.60;8.40;;;;;;;4.12;87.39;100707.52;1759761;79;25731;-70
2020/12/20 11:15:57;;;;;;;12.23;9.20;;;;;;;4.16;86.96;100709.13;1795486;79;25261;-67
2020/12/20 11:18:25;;;;;;;10.80;7.73;;;;;;;4.25;86.17;100708.80;1794118;79;25174;-68
2020/12/20 11:20:54;;;;;;;11.30;8.33;;;;;;;4.19;86.39;100711.17;1761926;80;25214;-67
2020/12/20 11:23:21;;;;;;;12.70;9.50;;;;;;;4.23;86.06;100711.45;1792342;80;25629;-68
2020/12/20 11:25:48;;;;;;;10.47;8.27;;;;;;;4.23;86.71;100710.61;1792895;80;25614;-68
2020/12/20 11:28:16;;;;;;;14.07;10.73;;;;;;;4.37;85.55;100708.37;1792980;80;25320;-70
2020/12/20 11:33:24;;;;;;;18.87;13.70;;;;;;;4.37;84.30;100707.06;1852736;77;26518;-67